createdAt,value
2018-03-28T00:04:35.575Z,0.8
2018-03-28T00:09:30.270Z,0.7
2018-03-28T00:14:30.422Z,0.6
2018-03-28T00:19:30.401Z,0.6
2018-03-28T00:24:30.282Z,0.5
2018-03-28T00:29:30.292Z,0.5
2018-03-28T00:34:30.281Z,0.6
2018-03-28T00:39:30.288Z,0.6
2018-03-28T00:44:30.269Z,0.6
2018-03-28T00:49:30.292Z,0.6
2018-03-28T00:54:30.503Z,0.7
2018-03-28T00:59:30.422Z,0.7
2018-03-28T01:04:30.315Z,0.7
2018-03-28T01:09:30.468Z,0.7
2018-03-28T01:14:30.324Z,0.7
2018-03-28T01:19:30.466Z,0.8
2018-03-28T01:24:30.493Z,0.9
2018-03-28T01:29:30.529Z,0.8
2018-03-28T01:34:30.309Z,0.8
2018-03-28T01:39:30.495Z,0.7
2018-03-28T01:44:30.509Z,0.7
2018-03-28T01:49:33.173Z,0.9
2018-03-28T01:54:30.285Z,0.8
2018-03-28T01:59:30.530Z,0.9
2018-03-28T02:04:30.566Z,0.9
2018-03-28T02:09:30.484Z,1
2018-03-28T02:14:30.529Z,0.9
2018-03-28T02:19:30.562Z,0.9
2018-03-28T02:24:30.478Z,1
2018-03-28T02:29:30.726Z,1
2018-03-28T02:34:30.513Z,0.9
2018-03-28T02:39:30.696Z,1.1
2018-03-28T02:44:30.739Z,1
2018-03-28T02:49:30.795Z,1
2018-03-28T02:54:30.905Z,1.2
2018-03-28T02:59:30.920Z,1.1
2018-03-28T03:04:30.918Z,1.2
2018-03-28T03:09:30.746Z,1.2
2018-03-28T03:14:30.801Z,1.2
2018-03-28T03:19:30.801Z,1.2
2018-03-28T03:24:30.801Z,1.2
2018-03-28T03:29:30.923Z,1.3
2018-03-28T03:34:30.952Z,1.3
2018-03-28T03:39:30.811Z,1.3
2018-03-28T03:44:30.799Z,1.3
2018-03-28T03:49:30.816Z,1.4
2018-03-28T03:54:30.812Z,1.3
2018-03-28T03:59:30.834Z,1.3
2018-03-28T04:04:30.950Z,1.3
2018-03-28T04:09:30.835Z,1.4
2018-03-28T04:14:30.828Z,1.4
2018-03-28T04:19:30.825Z,1.4
2018-03-28T04:24:30.841Z,1.5
2018-03-28T04:29:30.792Z,1.4
2018-03-28T04:34:30.841Z,1.5
2018-03-28T04:39:31.933Z,1.5
2018-03-28T04:44:37.153Z,1.5
2018-03-28T04:49:31.922Z,1.5
2018-03-28T04:54:32.320Z,1.5
2018-03-28T04:59:32.339Z,1.5
2018-03-28T05:04:32.145Z,1.6
2018-03-28T05:09:32.168Z,1.6
2018-03-28T05:14:32.176Z,1.6
2018-03-28T05:19:32.279Z,1.6
2018-03-28T05:24:32.173Z,1.6
2018-03-28T05:29:32.125Z,1.6
2018-03-28T05:34:32.386Z,1.7
2018-03-28T05:39:32.168Z,1.7
2018-03-28T05:44:32.186Z,1.8
2018-03-28T05:49:32.393Z,1.7
2018-03-28T05:54:32.226Z,1.8
2018-03-28T05:59:32.185Z,1.8
2018-03-28T06:04:32.411Z,1.9
2018-03-28T06:09:33.863Z,2
2018-03-28T06:14:32.340Z,2
2018-03-28T06:19:32.319Z,2.1
2018-03-28T06:24:32.319Z,2.2
2018-03-28T06:29:32.565Z,2.3
2018-03-28T06:34:32.482Z,2.3
2018-03-28T06:39:32.321Z,2.3
2018-03-28T06:44:32.594Z,2.5
2018-03-28T06:49:32.476Z,2.5
2018-03-28T06:54:32.530Z,2.6
2018-03-28T06:59:32.338Z,2.6
2018-03-28T07:04:32.352Z,2.8
2018-03-28T07:09:32.358Z,2.8
2018-03-28T07:14:32.509Z,2.9
2018-03-28T07:19:32.476Z,3
2018-03-28T07:24:32.521Z,3
2018-03-28T07:29:32.560Z,3.1
2018-03-28T07:34:32.471Z,3.1
2018-03-28T07:39:32.509Z,3.2
2018-03-28T07:44:32.499Z,3.3
2018-03-28T07:49:32.588Z,3.4
2018-03-28T07:54:32.507Z,3.4
2018-03-28T07:59:32.383Z,3.5
2018-03-28T08:04:32.593Z,3.5
2018-03-28T08:09:32.432Z,3.5
2018-03-28T08:14:32.552Z,3.6
2018-03-28T08:19:32.384Z,3.6
2018-03-28T08:24:32.488Z,3.7
2018-03-28T08:29:32.543Z,3.8
2018-03-28T08:34:32.593Z,3.9
2018-03-28T08:39:32.611Z,3.8
2018-03-28T08:44:32.517Z,3.8
2018-03-28T08:49:33.612Z,4
2018-03-28T08:54:32.631Z,4
2018-03-28T08:59:32.544Z,4.1
2018-03-28T09:04:32.580Z,4.3
2018-03-28T09:09:32.632Z,4.3
2018-03-28T09:14:32.426Z,4.4
2018-03-28T09:19:32.435Z,4.5
2018-03-28T09:24:32.627Z,4.5
2018-03-28T09:29:32.416Z,4.6
2018-03-28T09:34:35.739Z,4.6
2018-03-28T09:39:41.023Z,4.7
2018-03-28T09:44:35.713Z,4.7
2018-03-28T09:49:35.706Z,4.7
2018-03-28T09:54:35.731Z,4.8
2018-03-28T09:59:35.729Z,4.9
2018-03-28T10:04:35.744Z,5
2018-03-28T10:09:35.744Z,5
2018-03-28T10:14:35.926Z,5.1
2018-03-28T10:19:35.742Z,5.1
2018-03-28T10:24:35.765Z,5.2
2018-03-28T10:29:35.928Z,5.2
2018-03-28T10:34:35.963Z,5.3
2018-03-28T10:39:35.766Z,5.1
2018-03-28T10:44:35.909Z,5.2
2018-03-28T10:49:35.948Z,5.2
2018-03-28T10:54:35.762Z,5.3
2018-03-28T10:59:35.911Z,5.4
2018-03-28T11:04:35.980Z,5.6
2018-03-28T11:09:35.963Z,5.7
2018-03-28T11:14:35.776Z,6
2018-03-28T11:19:35.964Z,6.2
2018-03-28T11:24:35.771Z,6.5
2018-03-28T11:29:35.775Z,7
2018-03-28T11:34:35.954Z,7.2
2018-03-28T11:39:35.995Z,7.4
2018-03-28T11:44:35.739Z,7.6
2018-03-28T11:49:35.944Z,7.8
2018-03-28T11:54:36.001Z,8
2018-03-28T11:59:35.759Z,8.2
2018-03-28T12:04:35.947Z,8.3
2018-03-28T12:09:35.990Z,8.2
2018-03-28T12:14:35.821Z,8.2
2018-03-28T12:19:35.802Z,8.3
2018-03-28T12:24:35.910Z,8.3
2018-03-28T12:29:36.014Z,8.4
2018-03-28T12:34:35.936Z,8.6
2018-03-28T12:39:35.851Z,8.7
2018-03-28T12:44:36.030Z,9.1
2018-03-28T12:49:36.105Z,9.2
2018-03-28T12:54:35.770Z,9.2
2018-03-28T12:59:36.025Z,9.3
2018-03-28T13:04:36.050Z,9.3
2018-03-28T13:09:35.971Z,9.3
2018-03-28T13:14:36.003Z,9.4
2018-03-28T13:19:35.857Z,9.3
2018-03-28T13:24:35.981Z,9.3
2018-03-28T13:29:36.018Z,9.5
2018-03-28T13:34:35.845Z,9.6
2018-03-28T13:39:36.102Z,9.5
2018-03-28T13:44:36.002Z,9.6
2018-03-28T13:49:36.050Z,9.6
2018-03-28T13:54:35.858Z,9.7
2018-03-28T13:59:35.874Z,9.6
2018-03-28T14:04:35.984Z,9.4
2018-03-28T14:09:36.087Z,9.4
2018-03-28T14:14:36.001Z,9.4
2018-03-28T14:19:35.876Z,9.5
2018-03-28T14:24:36.745Z,9.3
2018-03-28T14:29:42.052Z,9.4
2018-03-28T14:34:36.887Z,9.3
2018-03-28T14:39:36.790Z,9.2
2018-03-28T14:44:36.798Z,9.1
2018-03-28T14:49:36.815Z,9
2018-03-28T14:54:36.806Z,8.9
2018-03-28T14:59:36.818Z,8.8
2018-03-28T15:04:36.815Z,8.8
2018-03-28T15:09:36.800Z,8.7
2018-03-28T15:14:36.819Z,8.6
2018-03-28T15:19:36.802Z,8.5
2018-03-28T15:24:36.814Z,8.5
2018-03-28T15:29:36.796Z,8.5
2018-03-28T15:34:36.810Z,8.4
2018-03-28T15:39:36.825Z,8.3
2018-03-28T15:44:36.831Z,8.2
2018-03-28T15:49:36.839Z,8.2
2018-03-28T15:54:36.847Z,8.2
2018-03-28T15:59:36.803Z,8.2
2018-03-28T16:04:36.903Z,8.2
2018-03-28T16:09:36.836Z,8.2
2018-03-28T16:14:36.855Z,8.2
2018-03-28T16:19:36.824Z,8.2
2018-03-28T16:24:36.857Z,8.2
2018-03-28T16:29:36.849Z,8.1
2018-03-28T16:34:36.856Z,8.1
2018-03-28T16:39:36.863Z,8.1
2018-03-28T16:44:37.038Z,8.1
2018-03-28T16:49:36.858Z,8
2018-03-28T16:54:36.859Z,8
2018-03-28T16:59:36.873Z,8
2018-03-28T17:04:37.075Z,8
2018-03-28T17:09:37.119Z,7.9
2018-03-28T17:14:36.875Z,7.9
2018-03-28T17:19:37.072Z,7.9
2018-03-28T17:24:37.100Z,7.8
2018-03-28T17:29:36.873Z,7.8
2018-03-28T17:34:36.886Z,7.8
2018-03-28T17:39:36.894Z,7.7
2018-03-28T17:44:37.035Z,7.7
2018-03-28T17:49:36.890Z,7.7
2018-03-28T17:54:37.102Z,7.6
2018-03-28T17:59:36.881Z,7.6
2018-03-28T18:04:36.891Z,7.6
2018-03-28T18:09:36.911Z,7.6
2018-03-28T18:14:36.901Z,7.5
2018-03-28T18:19:37.041Z,7.5
2018-03-28T18:24:37.103Z,7.5
2018-03-28T18:29:37.018Z,7.5
2018-03-28T18:34:36.930Z,7.5
2018-03-28T18:39:36.904Z,7.5
2018-03-28T18:44:36.902Z,7.5
2018-03-28T18:49:36.905Z,7.4
2018-03-28T18:54:36.916Z,7.4
2018-03-28T18:59:36.918Z,7.4
2018-03-28T19:04:36.914Z,7.4
2018-03-28T19:09:36.969Z,7.4
2018-03-28T19:14:36.933Z,7.4
2018-03-28T19:19:36.945Z,7.4
2018-03-28T19:24:41.679Z,7.3
2018-03-28T19:29:46.508Z,7.2
2018-03-28T19:34:51.562Z,7.2
2018-03-28T19:39:46.509Z,7.2
2018-03-28T19:44:46.442Z,7.2
2018-03-28T19:49:46.505Z,7.2
2018-03-28T19:54:46.490Z,7.2
2018-03-28T19:59:46.525Z,7.2
2018-03-28T20:04:46.494Z,7.1
2018-03-28T20:09:46.509Z,7.1
2018-03-28T20:14:46.512Z,7.1
2018-03-28T20:19:46.543Z,7.1
2018-03-28T20:24:46.507Z,7.1
2018-03-28T20:29:46.518Z,7
2018-03-28T20:34:46.527Z,7
2018-03-28T20:39:46.532Z,7
2018-03-28T20:44:46.512Z,7
2018-03-28T20:49:46.526Z,7
2018-03-28T20:54:46.815Z,7
2018-03-28T20:59:46.539Z,7
2018-03-28T21:04:46.559Z,7
2018-03-28T21:09:46.753Z,7
2018-03-28T21:14:47.308Z,7
2018-03-28T21:19:46.530Z,7
2018-03-28T21:24:46.572Z,7
2018-03-28T21:29:46.526Z,7
2018-03-28T21:34:46.566Z,7
2018-03-28T21:39:46.516Z,7
2018-03-28T21:44:46.745Z,6.9
2018-03-28T21:49:46.790Z,6.9
2018-03-28T21:54:46.559Z,6.9
2018-03-28T21:59:46.628Z,6.9
2018-03-28T22:04:46.784Z,6.8
2018-03-28T22:09:46.624Z,6.8
2018-03-28T22:14:46.846Z,6.9
2018-03-28T22:19:46.639Z,6.9
2018-03-28T22:24:46.799Z,6.9
2018-03-28T22:29:46.825Z,6.9
2018-03-28T22:34:46.877Z,6.8
2018-03-28T22:39:46.787Z,6.8
2018-03-28T22:44:46.841Z,6.8
2018-03-28T22:49:46.766Z,6.8
2018-03-28T22:54:46.801Z,6.8
2018-03-28T22:59:46.634Z,6.8
2018-03-28T23:04:46.649Z,6.8
2018-03-28T23:09:46.658Z,6.8
2018-03-28T23:14:46.649Z,6.8
2018-03-28T23:19:46.662Z,6.8
2018-03-28T23:24:46.798Z,6.8
2018-03-28T23:29:46.843Z,6.8
2018-03-28T23:34:46.660Z,6.8
2018-03-28T23:39:46.794Z,6.7
2018-03-28T23:44:46.656Z,6.7
2018-03-28T23:49:46.870Z,6.8
2018-03-28T23:54:46.682Z,6.8
2018-03-28T23:59:46.682Z,6.7
